sensor_id;sensor_type;location;lat;lon;timestamp;P1;durP1;ratioP1;P2;durP2;ratioP2
16401;SDS011;8310;44.626;11.176;2022-08-14T00:01:32;3.78;;;3.58;;
16401;SDS011;8310;44.626;11.176;2022-08-14T00:03:59;3.67;;;3.47;;
16401;SDS011;8310;44.626;11.176;2022-08-14T00:06:27;3.65;;;3.40;;
16401;SDS011;8310;44.626;11.176;2022-08-14T00:08:55;3.65;;;3.33;;
16401;SDS011;8310;44.626;11.176;2022-08-14T00:11:22;3.55;;;3.25;;
16401;SDS011;8310;44.626;11.176;2022-08-14T00:13:50;3.50;;;3.20;;
16401;SDS011;8310;44.626;11.176;2022-08-14T00:16:20;3.88;;;3.58;;
16401;SDS011;8310;44.626;11.176;2022-08-14T00:18:47;3.30;;;3.20;;
16401;SDS011;8310;44.626;11.176;2022-08-14T00:21:14;3.72;;;3.40;;
16401;SDS011;8310;44.626;11.176;2022-08-14T00:23:42;3.63;;;3.42;;
16401;SDS011;8310;44.626;11.176;2022-08-14T00:26:10;3.30;;;3.10;;
16401;SDS011;8310;44.626;11.176;2022-08-14T00:28:37;3.30;;;3.10;;
16401;SDS011;8310;44.626;11.176;2022-08-14T00:31:09;4.50;;;3.30;;
16401;SDS011;8310;44.626;11.176;2022-08-14T00:33:37;4.30;;;3.95;;
16401;SDS011;8310;44.626;11.176;2022-08-14T00:36:09;4.90;;;3.50;;
16401;SDS011;8310;44.626;11.176;2022-08-14T00:38:36;3.47;;;3.25;;
16401;SDS011;8310;44.626;11.176;2022-08-14T00:41:04;3.80;;;3.60;;
16401;SDS011;8310;44.626;11.176;2022-08-14T00:43:33;4.00;;;3.70;;
16401;SDS011;8310;44.626;11.176;2022-08-14T00:46:03;4.40;;;4.10;;
16401;SDS011;8310;44.626;11.176;2022-08-14T00:48:37;4.63;;;4.32;;
16401;SDS011;8310;44.626;11.176;2022-08-14T00:51:06;4.85;;;4.55;;
16401;SDS011;8310;44.626;11.176;2022-08-14T00:53:34;3.75;;;3.55;;
16401;SDS011;8310;44.626;11.176;2022-08-14T00:56:04;4.13;;;3.88;;
16401;SDS011;8310;44.626;11.176;2022-08-14T00:58:31;4.13;;;3.92;;
16401;SDS011;8310;44.626;11.176;2022-08-14T01:01:00;3.83;;;3.45;;
16401;SDS011;8310;44.626;11.176;2022-08-14T01:03:30;3.75;;;3.55;;
16401;SDS011;8310;44.626;11.176;2022-08-14T01:06:06;3.22;;;2.83;;
16401;SDS011;8310;44.626;11.176;2022-08-14T01:08:35;2.90;;;2.72;;
16401;SDS011;8310;44.626;11.176;2022-08-14T01:11:04;3.53;;;3.30;;
16401;SDS011;8310;44.626;11.176;2022-08-14T01:13:33;3.33;;;3.13;;
16401;SDS011;8310;44.626;11.176;2022-08-14T01:16:05;3.40;;;3.20;;
16401;SDS011;8310;44.626;11.176;2022-08-14T01:18:35;3.28;;;3.08;;
16401;SDS011;8310;44.626;11.176;2022-08-14T01:21:22;2.97;;;2.78;;
16401;SDS011;8310;44.626;11.176;2022-08-14T01:23:51;3.10;;;2.90;;
16401;SDS011;8310;44.626;11.176;2022-08-14T01:26:20;2.90;;;2.75;;
16401;SDS011;8310;44.626;11.176;2022-08-14T01:28:48;2.78;;;2.67;;
16401;SDS011;8310;44.626;11.176;2022-08-14T01:31:20;3.30;;;3.10;;
16401;SDS011;8310;44.626;11.176;2022-08-14T01:33:50;3.38;;;2.67;;
16401;SDS011;8310;44.626;11.176;2022-08-14T01:36:21;2.80;;;2.60;;
16401;SDS011;8310;44.626;11.176;2022-08-14T01:38:51;2.72;;;2.63;;
16401;SDS011;8310;44.626;11.176;2022-08-14T01:41:22;3.22;;;3.00;;
16401;SDS011;8310;44.626;11.176;2022-08-14T01:43:52;3.05;;;2.85;;
16401;SDS011;8310;44.626;11.176;2022-08-14T01:46:25;2.83;;;2.72;;
16401;SDS011;8310;44.626;11.176;2022-08-14T01:48:55;2.83;;;2.63;;
16401;SDS011;8310;44.626;11.176;2022-08-14T01:51:24;2.70;;;2.60;;
16401;SDS011;8310;44.626;11.176;2022-08-14T01:53:58;3.33;;;3.03;;
16401;SDS011;8310;44.626;11.176;2022-08-14T01:56:28;3.17;;;2.97;;
16401;SDS011;8310;44.626;11.176;2022-08-14T01:59:02;3.13;;;2.83;;
16401;SDS011;8310;44.626;11.176;2022-08-14T02:01:30;2.85;;;2.63;;
16401;SDS011;8310;44.626;11.176;2022-08-14T02:03:57;3.13;;;3.03;;
16401;SDS011;8310;44.626;11.176;2022-08-14T02:06:26;3.13;;;2.92;;
16401;SDS011;8310;44.626;11.176;2022-08-14T02:08:54;2.60;;;2.50;;
16401;SDS011;8310;44.626;11.176;2022-08-14T02:11:22;3.53;;;2.60;;
16401;SDS011;8310;44.626;11.176;2022-08-14T02:13:53;3.05;;;2.90;;
16401;SDS011;8310;44.626;11.176;2022-08-14T02:16:25;3.03;;;2.72;;
16401;SDS011;8310;44.626;11.176;2022-08-14T02:18:55;3.08;;;2.80;;
16401;SDS011;8310;44.626;11.176;2022-08-14T02:21:26;3.00;;;2.83;;
16401;SDS011;8310;44.626;11.176;2022-08-14T02:23:56;3.13;;;2.92;;
16401;SDS011;8310;44.626;11.176;2022-08-14T02:26:24;3.60;;;3.30;;
16401;SDS011;8310;44.626;11.176;2022-08-14T02:28:55;3.70;;;3.50;;
16401;SDS011;8310;44.626;11.176;2022-08-14T02:31:27;3.67;;;3.47;;
16401;SDS011;8310;44.626;11.176;2022-08-14T02:33:57;3.80;;;3.50;;
16401;SDS011;8310;44.626;11.176;2022-08-14T02:36:26;3.63;;;3.33;;
16401;SDS011;8310;44.626;11.176;2022-08-14T02:38:54;3.88;;;3.58;;
16401;SDS011;8310;44.626;11.176;2022-08-14T02:41:21;3.80;;;3.60;;
16401;SDS011;8310;44.626;11.176;2022-08-14T02:43:49;3.85;;;3.65;;
16401;SDS011;8310;44.626;11.176;2022-08-14T02:46:16;3.70;;;3.42;;
16401;SDS011;8310;44.626;11.176;2022-08-14T02:48:44;4.07;;;3.78;;
16401;SDS011;8310;44.626;11.176;2022-08-14T02:51:12;4.10;;;3.83;;
16401;SDS011;8310;44.626;11.176;2022-08-14T02:53:42;4.00;;;3.70;;
16401;SDS011;8310;44.626;11.176;2022-08-14T02:56:11;4.32;;;3.97;;
16401;SDS011;8310;44.626;11.176;2022-08-14T02:58:42;4.10;;;3.78;;
16401;SDS011;8310;44.626;11.176;2022-08-14T03:01:12;4.40;;;4.00;;
16401;SDS011;8310;44.626;11.176;2022-08-14T03:03:41;3.95;;;3.75;;
16401;SDS011;8310;44.626;11.176;2022-08-14T03:06:11;3.80;;;3.60;;
16401;SDS011;8310;44.626;11.176;2022-08-14T03:08:39;3.92;;;3.72;;
16401;SDS011;8310;44.626;11.176;2022-08-14T03:11:09;3.70;;;3.40;;
16401;SDS011;8310;44.626;11.176;2022-08-14T03:13:39;3.83;;;3.53;;
16401;SDS011;8310;44.626;11.176;2022-08-14T03:16:09;4.00;;;3.67;;
16401;SDS011;8310;44.626;11.176;2022-08-14T03:18:39;5.65;;;5.20;;
16401;SDS011;8310;44.626;11.176;2022-08-14T03:21:09;5.45;;;5.05;;
16401;SDS011;8310;44.626;11.176;2022-08-14T03:23:38;4.75;;;4.45;;
16401;SDS011;8310;44.626;11.176;2022-08-14T03:26:09;5.05;;;4.70;;
16401;SDS011;8310;44.626;11.176;2022-08-14T03:28:37;4.35;;;4.07;;
16401;SDS011;8310;44.626;11.176;2022-08-14T03:31:07;4.57;;;4.28;;
16401;SDS011;8310;44.626;11.176;2022-08-14T03:33:36;4.30;;;3.97;;
16401;SDS011;8310;44.626;11.176;2022-08-14T03:36:05;4.45;;;4.03;;
16401;SDS011;8310;44.626;11.176;2022-08-14T03:38:37;4.70;;;4.40;;
16401;SDS011;8310;44.626;11.176;2022-08-14T03:41:07;4.15;;;3.92;;
16401;SDS011;8310;44.626;11.176;2022-08-14T03:43:40;4.30;;;3.97;;
16401;SDS011;8310;44.626;11.176;2022-08-14T03:46:07;4.10;;;3.85;;
16401;SDS011;8310;44.626;11.176;2022-08-14T03:48:37;4.03;;;3.63;;
16401;SDS011;8310;44.626;11.176;2022-08-14T03:51:05;4.38;;;4.05;;
16401;SDS011;8310;44.626;11.176;2022-08-14T03:53:34;3.80;;;3.60;;
16401;SDS011;8310;44.626;11.176;2022-08-14T03:56:04;3.70;;;3.47;;
16401;SDS011;8310;44.626;11.176;2022-08-14T03:58:34;3.90;;;3.60;;
16401;SDS011;8310;44.626;11.176;2022-08-14T04:01:06;4.10;;;3.70;;
16401;SDS011;8310;44.626;11.176;2022-08-14T04:03:34;3.67;;;3.40;;
16401;SDS011;8310;44.626;11.176;2022-08-14T04:06:02;3.50;;;3.28;;
16401;SDS011;8310;44.626;11.176;2022-08-14T04:08:33;4.03;;;3.72;;
16401;SDS011;8310;44.626;11.176;2022-08-14T04:11:00;3.50;;;3.33;;
16401;SDS011;8310;44.626;11.176;2022-08-14T04:13:34;3.42;;;3.22;;
16401;SDS011;8310;44.626;11.176;2022-08-14T04:16:04;3.67;;;3.47;;
16401;SDS011;8310;44.626;11.176;2022-08-14T04:18:36;3.13;;;2.92;;
16401;SDS011;8310;44.626;11.176;2022-08-14T04:21:04;4.30;;;3.67;;
16401;SDS011;8310;44.626;11.176;2022-08-14T04:23:32;3.33;;;3.13;;
16401;SDS011;8310;44.626;11.176;2022-08-14T04:26:00;3.88;;;3.65;;
16401;SDS011;8310;44.626;11.176;2022-08-14T04:28:29;4.05;;;3.75;;
16401;SDS011;8310;44.626;11.176;2022-08-14T04:30:59;4.22;;;3.92;;
16401;SDS011;8310;44.626;11.176;2022-08-14T04:33:26;3.63;;;3.42;;
16401;SDS011;8310;44.626;11.176;2022-08-14T04:35:54;3.85;;;3.58;;
16401;SDS011;8310;44.626;11.176;2022-08-14T04:38:22;4.88;;;4.43;;
16401;SDS011;8310;44.626;11.176;2022-08-14T04:41:07;4.28;;;4.03;;
16401;SDS011;8310;44.626;11.176;2022-08-14T04:43:52;3.88;;;3.60;;
16401;SDS011;8310;44.626;11.176;2022-08-14T04:46:22;4.55;;;4.25;;
16401;SDS011;8310;44.626;11.176;2022-08-14T04:48:50;4.60;;;4.30;;
16401;SDS011;8310;44.626;11.176;2022-08-14T04:51:17;4.60;;;4.30;;
16401;SDS011;8310;44.626;11.176;2022-08-14T04:53:46;5.57;;;4.20;;
16401;SDS011;8310;44.626;11.176;2022-08-14T04:56:16;5.00;;;4.57;;
16401;SDS011;8310;44.626;11.176;2022-08-14T04:58:46;4.72;;;4.43;;
16401;SDS011;8310;44.626;11.176;2022-08-14T05:01:15;4.90;;;4.60;;
16401;SDS011;8310;44.626;11.176;2022-08-14T05:03:45;5.00;;;4.65;;
16401;SDS011;8310;44.626;11.176;2022-08-14T05:06:13;5.25;;;4.93;;
16401;SDS011;8310;44.626;11.176;2022-08-14T05:08:41;4.70;;;4.40;;
16401;SDS011;8310;44.626;11.176;2022-08-14T05:11:08;4.60;;;4.20;;
16401;SDS011;8310;44.626;11.176;2022-08-14T05:16:12;4.82;;;4.53;;
16401;SDS011;8310;44.626;11.176;2022-08-14T05:18:39;4.82;;;4.53;;
16401;SDS011;8310;44.626;11.176;2022-08-14T05:21:08;5.40;;;4.72;;
16401;SDS011;8310;44.626;11.176;2022-08-14T05:23:37;4.65;;;4.28;;
16401;SDS011;8310;44.626;11.176;2022-08-14T05:26:05;4.53;;;4.13;;
16401;SDS011;8310;44.626;11.176;2022-08-14T05:28:37;4.15;;;3.95;;
16401;SDS011;8310;44.626;11.176;2022-08-14T05:31:09;3.53;;;3.33;;
16401;SDS011;8310;44.626;11.176;2022-08-14T05:33:38;4.13;;;3.92;;
16401;SDS011;8310;44.626;11.176;2022-08-14T05:36:09;3.42;;;3.22;;
16401;SDS011;8310;44.626;11.176;2022-08-14T05:38:38;3.70;;;3.40;;
16401;SDS011;8310;44.626;11.176;2022-08-14T05:41:07;3.45;;;3.22;;
16401;SDS011;8310;44.626;11.176;2022-08-14T05:43:35;3.38;;;3.17;;
16401;SDS011;8310;44.626;11.176;2022-08-14T05:46:02;3.33;;;3.13;;
16401;SDS011;8310;44.626;11.176;2022-08-14T05:48:31;3.63;;;3.40;;
16401;SDS011;8310;44.626;11.176;2022-08-14T05:50:59;6.90;;;3.45;;
16401;SDS011;8310;44.626;11.176;2022-08-14T05:53:28;4.25;;;3.65;;
16401;SDS011;8310;44.626;11.176;2022-08-14T05:55:56;3.03;;;2.83;;
16401;SDS011;8310;44.626;11.176;2022-08-14T05:58:24;3.28;;;3.05;;
16401;SDS011;8310;44.626;11.176;2022-08-14T06:00:52;4.07;;;3.75;;
16401;SDS011;8310;44.626;11.176;2022-08-14T06:03:21;3.33;;;3.00;;
16401;SDS011;8310;44.626;11.176;2022-08-14T06:05:50;3.72;;;3.47;;
16401;SDS011;8310;44.626;11.176;2022-08-14T06:08:19;3.38;;;3.17;;
16401;SDS011;8310;44.626;11.176;2022-08-14T06:10:50;3.83;;;3.63;;
16401;SDS011;8310;44.626;11.176;2022-08-14T06:13:19;3.70;;;3.40;;
16401;SDS011;8310;44.626;11.176;2022-08-14T06:15:48;4.25;;;3.20;;
16401;SDS011;8310;44.626;11.176;2022-08-14T06:18:15;4.55;;;4.25;;
16401;SDS011;8310;44.626;11.176;2022-08-14T06:20:43;5.03;;;4.63;;
16401;SDS011;8310;44.626;11.176;2022-08-14T06:23:11;4.60;;;4.30;;
16401;SDS011;8310;44.626;11.176;2022-08-14T06:25:38;3.70;;;3.50;;
16401;SDS011;8310;44.626;11.176;2022-08-14T06:28:07;4.57;;;3.47;;
16401;SDS011;8310;44.626;11.176;2022-08-14T06:30:34;4.13;;;3.72;;
16401;SDS011;8310;44.626;11.176;2022-08-14T06:33:02;3.70;;;3.45;;
16401;SDS011;8310;44.626;11.176;2022-08-14T06:35:30;4.68;;;3.53;;
16401;SDS011;8310;44.626;11.176;2022-08-14T06:37:58;3.33;;;3.13;;
16401;SDS011;8310;44.626;11.176;2022-08-14T06:40:26;3.60;;;3.40;;
16401;SDS011;8310;44.626;11.176;2022-08-14T06:42:57;3.80;;;3.50;;
16401;SDS011;8310;44.626;11.176;2022-08-14T06:45:31;3.47;;;3.28;;
16401;SDS011;8310;44.626;11.176;2022-08-14T06:48:00;3.35;;;3.15;;
16401;SDS011;8310;44.626;11.176;2022-08-14T06:50:28;3.13;;;2.92;;
16401;SDS011;8310;44.626;11.176;2022-08-14T06:52:56;3.50;;;3.28;;
16401;SDS011;8310;44.626;11.176;2022-08-14T06:55:24;3.08;;;2.97;;
16401;SDS011;8310;44.626;11.176;2022-08-14T06:57:52;3.05;;;2.88;;
16401;SDS011;8310;44.626;11.176;2022-08-14T07:00:21;2.97;;;2.75;;
16401;SDS011;8310;44.626;11.176;2022-08-14T07:02:51;3.72;;;3.10;;
16401;SDS011;8310;44.626;11.176;2022-08-14T07:05:35;2.97;;;2.80;;
16401;SDS011;8310;44.626;11.176;2022-08-14T07:08:12;2.95;;;2.75;;
16401;SDS011;8310;44.626;11.176;2022-08-14T07:10:41;3.15;;;2.95;;
16401;SDS011;8310;44.626;11.176;2022-08-14T07:13:10;2.80;;;2.70;;
16401;SDS011;8310;44.626;11.176;2022-08-14T07:15:38;3.13;;;2.92;;
16401;SDS011;8310;44.626;11.176;2022-08-14T07:18:08;2.90;;;2.70;;
16401;SDS011;8310;44.626;11.176;2022-08-14T07:20:36;2.53;;;2.42;;
16401;SDS011;8310;44.626;11.176;2022-08-14T07:23:05;2.60;;;2.50;;
16401;SDS011;8310;44.626;11.176;2022-08-14T07:25:34;2.72;;;2.63;;
16401;SDS011;8310;44.626;11.176;2022-08-14T07:28:07;2.72;;;2.53;;
16401;SDS011;8310;44.626;11.176;2022-08-14T07:30:35;2.80;;;2.63;;
16401;SDS011;8310;44.626;11.176;2022-08-14T07:33:03;2.58;;;2.47;;
16401;SDS011;8310;44.626;11.176;2022-08-14T07:35:33;3.95;;;2.45;;
16401;SDS011;8310;44.626;11.176;2022-08-14T07:38:01;2.60;;;2.50;;
16401;SDS011;8310;44.626;11.176;2022-08-14T07:40:29;2.92;;;2.72;;
16401;SDS011;8310;44.626;11.176;2022-08-14T07:42:57;3.03;;;2.80;;
16401;SDS011;8310;44.626;11.176;2022-08-14T07:45:25;2.50;;;2.38;;
16401;SDS011;8310;44.626;11.176;2022-08-14T07:47:53;2.67;;;2.58;;
16401;SDS011;8310;44.626;11.176;2022-08-14T07:50:22;2.83;;;2.63;;
16401;SDS011;8310;44.626;11.176;2022-08-14T07:52:53;3.20;;;3.00;;
16401;SDS011;8310;44.626;11.176;2022-08-14T07:55:20;2.88;;;2.67;;
16401;SDS011;8310;44.626;11.176;2022-08-14T07:57:48;2.92;;;2.72;;
16401;SDS011;8310;44.626;11.176;2022-08-14T08:00:17;2.70;;;2.60;;
16401;SDS011;8310;44.626;11.176;2022-08-14T08:02:47;3.05;;;2.90;;
16401;SDS011;8310;44.626;11.176;2022-08-14T08:05:16;2.75;;;2.65;;
16401;SDS011;8310;44.626;11.176;2022-08-14T08:07:49;2.97;;;2.78;;
16401;SDS011;8310;44.626;11.176;2022-08-14T08:10:20;2.83;;;2.72;;
16401;SDS011;8310;44.626;11.176;2022-08-14T08:12:58;3.42;;;3.10;;
16401;SDS011;8310;44.626;11.176;2022-08-14T08:15:28;2.90;;;2.70;;
16401;SDS011;8310;44.626;11.176;2022-08-14T08:17:57;2.72;;;2.53;;
16401;SDS011;8310;44.626;11.176;2022-08-14T08:20:26;4.75;;;2.50;;
16401;SDS011;8310;44.626;11.176;2022-08-14T08:22:53;2.80;;;2.60;;
16401;SDS011;8310;44.626;11.176;2022-08-14T08:25:24;3.33;;;2.53;;
16401;SDS011;8310;44.626;11.176;2022-08-14T08:27:53;2.60;;;2.50;;
16401;SDS011;8310;44.626;11.176;2022-08-14T08:30:24;2.90;;;2.80;;
16401;SDS011;8310;44.626;11.176;2022-08-14T08:32:53;3.28;;;2.95;;
16401;SDS011;8310;44.626;11.176;2022-08-14T08:35:23;2.60;;;2.40;;
16401;SDS011;8310;44.626;11.176;2022-08-14T08:37:52;2.17;;;2.08;;
16401;SDS011;8310;44.626;11.176;2022-08-14T08:40:21;2.60;;;2.50;;
16401;SDS011;8310;44.626;11.176;2022-08-14T08:42:52;2.72;;;2.63;;
16401;SDS011;8310;44.626;11.176;2022-08-14T08:45:20;3.30;;;2.60;;
16401;SDS011;8310;44.626;11.176;2022-08-14T08:47:49;2.72;;;2.53;;
16401;SDS011;8310;44.626;11.176;2022-08-14T08:50:18;2.88;;;2.78;;
16401;SDS011;8310;44.626;11.176;2022-08-14T08:52:50;3.97;;;2.88;;
16401;SDS011;8310;44.626;11.176;2022-08-14T08:58:04;3.35;;;3.08;;
16401;SDS011;8310;44.626;11.176;2022-08-14T09:00:33;2.63;;;2.42;;
16401;SDS011;8310;44.626;11.176;2022-08-14T09:03:03;2.70;;;2.50;;
16401;SDS011;8310;44.626;11.176;2022-08-14T09:05:33;3.95;;;2.58;;
16401;SDS011;8310;44.626;11.176;2022-08-14T09:08:09;2.90;;;2.70;;
16401;SDS011;8310;44.626;11.176;2022-08-14T09:10:43;2.75;;;2.65;;
16401;SDS011;8310;44.626;11.176;2022-08-14T09:13:11;2.80;;;2.70;;
16401;SDS011;8310;44.626;11.176;2022-08-14T09:15:39;2.60;;;2.50;;
16401;SDS011;8310;44.626;11.176;2022-08-14T09:18:08;2.65;;;2.55;;
16401;SDS011;8310;44.626;11.176;2022-08-14T09:20:37;2.58;;;2.30;;
16401;SDS011;8310;44.626;11.176;2022-08-14T09:23:06;2.63;;;2.53;;
16401;SDS011;8310;44.626;11.176;2022-08-14T09:25:38;2.78;;;2.58;;
16401;SDS011;8310;44.626;11.176;2022-08-14T09:28:08;2.88;;;2.67;;
16401;SDS011;8310;44.626;11.176;2022-08-14T09:30:39;2.60;;;2.50;;
16401;SDS011;8310;44.626;11.176;2022-08-14T09:33:25;2.42;;;2.30;;
16401;SDS011;8310;44.626;11.176;2022-08-14T09:36:23;4.10;;;2.67;;
16401;SDS011;8310;44.626;11.176;2022-08-14T09:39:00;3.15;;;2.83;;
16401;SDS011;8310;44.626;11.176;2022-08-14T09:41:43;2.70;;;2.60;;
16401;SDS011;8310;44.626;11.176;2022-08-14T09:44:28;3.08;;;2.88;;
16401;SDS011;8310;44.626;11.176;2022-08-14T09:47:05;2.65;;;2.55;;
16401;SDS011;8310;44.626;11.176;2022-08-14T09:49:35;2.33;;;2.20;;
16401;SDS011;8310;44.626;11.176;2022-08-14T09:52:04;2.72;;;2.53;;
16401;SDS011;8310;44.626;11.176;2022-08-14T09:54:37;2.65;;;2.30;;
16401;SDS011;8310;44.626;11.176;2022-08-14T09:57:07;2.60;;;2.40;;
16401;SDS011;8310;44.626;11.176;2022-08-14T09:59:40;2.50;;;2.38;;
16401;SDS011;8310;44.626;11.176;2022-08-14T10:02:20;2.60;;;2.50;;
16401;SDS011;8310;44.626;11.176;2022-08-14T10:04:58;2.50;;;2.30;;
16401;SDS011;8310;44.626;11.176;2022-08-14T10:07:31;2.47;;;2.38;;
16401;SDS011;8310;44.626;11.176;2022-08-14T10:10:00;2.65;;;2.55;;
16401;SDS011;8310;44.626;11.176;2022-08-14T10:12:41;2.97;;;2.72;;
16401;SDS011;8310;44.626;11.176;2022-08-14T10:15:15;2.97;;;2.67;;
16401;SDS011;8310;44.626;11.176;2022-08-14T10:17:43;2.65;;;2.55;;
16401;SDS011;8310;44.626;11.176;2022-08-14T10:20:10;3.03;;;2.90;;
16401;SDS011;8310;44.626;11.176;2022-08-14T10:22:39;3.05;;;2.65;;
16401;SDS011;8310;44.626;11.176;2022-08-14T10:25:10;2.88;;;2.67;;
16401;SDS011;8310;44.626;11.176;2022-08-14T10:27:39;2.33;;;2.22;;
16401;SDS011;8310;44.626;11.176;2022-08-14T10:30:15;2.60;;;2.40;;
16401;SDS011;8310;44.626;11.176;2022-08-14T10:32:44;2.33;;;2.20;;
16401;SDS011;8310;44.626;11.176;2022-08-14T10:35:13;2.30;;;2.20;;
16401;SDS011;8310;44.626;11.176;2022-08-14T10:37:43;2.55;;;2.45;;
16401;SDS011;8310;44.626;11.176;2022-08-14T10:40:13;2.58;;;2.40;;
16401;SDS011;8310;44.626;11.176;2022-08-14T10:42:42;2.30;;;2.20;;
16401;SDS011;8310;44.626;11.176;2022-08-14T10:45:20;2.13;;;2.08;;
16401;SDS011;8310;44.626;11.176;2022-08-14T10:47:48;2.25;;;2.17;;
16401;SDS011;8310;44.626;11.176;2022-08-14T10:50:16;2.40;;;2.30;;
16401;SDS011;8310;44.626;11.176;2022-08-14T10:52:55;2.50;;;2.30;;
16401;SDS011;8310;44.626;11.176;2022-08-14T10:55:30;2.47;;;2.28;;
16401;SDS011;8310;44.626;11.176;2022-08-14T10:58:03;2.00;;;2.00;;
16401;SDS011;8310;44.626;11.176;2022-08-14T11:00:37;2.20;;;2.10;;
16401;SDS011;8310;44.626;11.176;2022-08-14T11:03:06;2.25;;;2.15;;
16401;SDS011;8310;44.626;11.176;2022-08-14T11:05:38;2.50;;;2.30;;
16401;SDS011;8310;44.626;11.176;2022-08-14T11:08:07;2.97;;;2.10;;
16401;SDS011;8310;44.626;11.176;2022-08-14T11:10:40;2.10;;;2.00;;
16401;SDS011;8310;44.626;11.176;2022-08-14T11:13:09;2.20;;;2.10;;
16401;SDS011;8310;44.626;11.176;2022-08-14T11:15:43;2.10;;;2.00;;
16401;SDS011;8310;44.626;11.176;2022-08-14T11:18:11;2.10;;;2.00;;
16401;SDS011;8310;44.626;11.176;2022-08-14T11:20:38;2.10;;;2.00;;
16401;SDS011;8310;44.626;11.176;2022-08-14T11:23:11;2.40;;;2.30;;
16401;SDS011;8310;44.626;11.176;2022-08-14T11:25:42;2.83;;;2.35;;
16401;SDS011;8310;44.626;11.176;2022-08-14T11:28:12;2.40;;;2.20;;
16401;SDS011;8310;44.626;11.176;2022-08-14T11:30:40;2.20;;;2.05;;
16401;SDS011;8310;44.626;11.176;2022-08-14T11:33:10;2.30;;;2.20;;
16401;SDS011;8310;44.626;11.176;2022-08-14T11:35:37;2.22;;;2.13;;
16401;SDS011;8310;44.626;11.176;2022-08-14T11:38:06;2.00;;;1.90;;
16401;SDS011;8310;44.626;11.176;2022-08-14T11:40:36;2.05;;;2.00;;
16401;SDS011;8310;44.626;11.176;2022-08-14T11:43:05;2.05;;;1.90;;
16401;SDS011;8310;44.626;11.176;2022-08-14T11:45:34;2.10;;;2.00;;
16401;SDS011;8310;44.626;11.176;2022-08-14T11:48:14;2.20;;;2.00;;
16401;SDS011;8310;44.626;11.176;2022-08-14T11:50:43;2.28;;;2.00;;
16401;SDS011;8310;44.626;11.176;2022-08-14T11:53:19;2.30;;;2.20;;
16401;SDS011;8310;44.626;11.176;2022-08-14T11:55:55;1.98;;;1.88;;
16401;SDS011;8310;44.626;11.176;2022-08-14T11:58:24;2.20;;;2.10;;
16401;SDS011;8310;44.626;11.176;2022-08-14T12:00:54;2.20;;;2.10;;
16401;SDS011;8310;44.626;11.176;2022-08-14T12:03:36;1.85;;;1.83;;
16401;SDS011;8310;44.626;11.176;2022-08-14T12:06:06;1.85;;;1.75;;
16401;SDS011;8310;44.626;11.176;2022-08-14T12:08:34;2.15;;;2.05;;
16401;SDS011;8310;44.626;11.176;2022-08-14T12:11:03;2.00;;;1.90;;
16401;SDS011;8310;44.626;11.176;2022-08-14T12:13:31;2.20;;;2.05;;
16401;SDS011;8310;44.626;11.176;2022-08-14T12:16:01;2.05;;;1.95;;
16401;SDS011;8310;44.626;11.176;2022-08-14T12:18:30;1.92;;;1.90;;
16401;SDS011;8310;44.626;11.176;2022-08-14T12:21:10;2.28;;;2.17;;
16401;SDS011;8310;44.626;11.176;2022-08-14T12:23:39;1.73;;;1.73;;
16401;SDS011;8310;44.626;11.176;2022-08-14T12:26:08;1.70;;;1.60;;
16401;SDS011;8310;44.626;11.176;2022-08-14T12:28:36;2.05;;;1.90;;
16401;SDS011;8310;44.626;11.176;2022-08-14T12:31:13;2.08;;;1.95;;
16401;SDS011;8310;44.626;11.176;2022-08-14T12:33:54;2.08;;;1.98;;
16401;SDS011;8310;44.626;11.176;2022-08-14T12:36:25;1.80;;;1.70;;
16401;SDS011;8310;44.626;11.176;2022-08-14T12:38:54;1.58;;;1.58;;
16401;SDS011;8310;44.626;11.176;2022-08-14T12:41:23;2.03;;;1.92;;
16401;SDS011;8310;44.626;11.176;2022-08-14T12:43:54;2.00;;;1.90;;
16401;SDS011;8310;44.626;11.176;2022-08-14T12:46:24;1.95;;;1.80;;
16401;SDS011;8310;44.626;11.176;2022-08-14T12:48:53;1.80;;;1.70;;
16401;SDS011;8310;44.626;11.176;2022-08-14T12:51:23;1.80;;;1.70;;
16401;SDS011;8310;44.626;11.176;2022-08-14T12:53:56;1.98;;;1.88;;
16401;SDS011;8310;44.626;11.176;2022-08-14T12:56:24;1.95;;;1.85;;
16401;SDS011;8310;44.626;11.176;2022-08-14T12:58:53;2.00;;;1.90;;
16401;SDS011;8310;44.626;11.176;2022-08-14T13:01:23;1.88;;;1.85;;
16401;SDS011;8310;44.626;11.176;2022-08-14T13:04:02;1.85;;;1.85;;
16401;SDS011;8310;44.626;11.176;2022-08-14T13:06:33;1.90;;;1.90;;
16401;SDS011;8310;44.626;11.176;2022-08-14T13:09:01;2.00;;;1.90;;
16401;SDS011;8310;44.626;11.176;2022-08-14T13:11:41;1.77;;;1.77;;
16401;SDS011;8310;44.626;11.176;2022-08-14T13:14:10;2.08;;;1.98;;
16401;SDS011;8310;44.626;11.176;2022-08-14T13:16:39;1.65;;;1.65;;
16401;SDS011;8310;44.626;11.176;2022-08-14T13:19:07;1.80;;;1.70;;
16401;SDS011;8310;44.626;11.176;2022-08-14T13:21:42;1.77;;;1.77;;
16401;SDS011;8310;44.626;11.176;2022-08-14T13:24:12;2.08;;;1.90;;
16401;SDS011;8310;44.626;11.176;2022-08-14T13:26:41;1.98;;;1.88;;
16401;SDS011;8310;44.626;11.176;2022-08-14T13:29:10;1.88;;;1.77;;
16401;SDS011;8310;44.626;11.176;2022-08-14T13:31:42;2.05;;;1.95;;
16401;SDS011;8310;44.626;11.176;2022-08-14T13:34:11;1.85;;;1.85;;
16401;SDS011;8310;44.626;11.176;2022-08-14T13:36:38;2.00;;;1.90;;
16401;SDS011;8310;44.626;11.176;2022-08-14T13:39:07;2.10;;;2.00;;
16401;SDS011;8310;44.626;11.176;2022-08-14T13:41:35;1.85;;;1.75;;
16401;SDS011;8310;44.626;11.176;2022-08-14T13:44:03;3.83;;;1.90;;
16401;SDS011;8310;44.626;11.176;2022-08-14T13:46:31;2.00;;;1.90;;
16401;SDS011;8310;44.626;11.176;2022-08-14T13:48:58;2.03;;;1.92;;
16401;SDS011;8310;44.626;11.176;2022-08-14T13:51:26;1.70;;;1.70;;
16401;SDS011;8310;44.626;11.176;2022-08-14T13:53:58;1.77;;;1.67;;
16401;SDS011;8310;44.626;11.176;2022-08-14T13:56:28;1.80;;;1.70;;
16401;SDS011;8310;44.626;11.176;2022-08-14T13:58:57;1.67;;;1.67;;
16401;SDS011;8310;44.626;11.176;2022-08-14T14:01:25;2.00;;;1.80;;
16401;SDS011;8310;44.626;11.176;2022-08-14T14:03:53;2.00;;;1.90;;
16401;SDS011;8310;44.626;11.176;2022-08-14T14:06:22;1.73;;;1.63;;
16401;SDS011;8310;44.626;11.176;2022-08-14T14:08:52;1.80;;;1.80;;
16401;SDS011;8310;44.626;11.176;2022-08-14T14:11:22;2.15;;;2.00;;
16401;SDS011;8310;44.626;11.176;2022-08-14T14:13:50;2.10;;;1.95;;
16401;SDS011;8310;44.626;11.176;2022-08-14T14:16:20;2.35;;;1.90;;
16401;SDS011;8310;44.626;11.176;2022-08-14T14:18:48;1.90;;;1.90;;
16401;SDS011;8310;44.626;11.176;2022-08-14T14:21:20;2.05;;;1.95;;
16401;SDS011;8310;44.626;11.176;2022-08-14T14:23:50;1.70;;;1.70;;
16401;SDS011;8310;44.626;11.176;2022-08-14T14:26:18;5.07;;;2.00;;
16401;SDS011;8310;44.626;11.176;2022-08-14T14:28:49;2.13;;;2.03;;
16401;SDS011;8310;44.626;11.176;2022-08-14T14:31:19;2.00;;;1.90;;
16401;SDS011;8310;44.626;11.176;2022-08-14T14:33:48;1.90;;;1.80;;
16401;SDS011;8310;44.626;11.176;2022-08-14T14:36:17;2.10;;;2.00;;
16401;SDS011;8310;44.626;11.176;2022-08-14T14:38:47;2.20;;;1.95;;
16401;SDS011;8310;44.626;11.176;2022-08-14T14:41:17;1.65;;;1.65;;
16401;SDS011;8310;44.626;11.176;2022-08-14T14:43:48;1.92;;;1.90;;
16401;SDS011;8310;44.626;11.176;2022-08-14T14:46:17;1.52;;;1.52;;
16401;SDS011;8310;44.626;11.176;2022-08-14T14:48:45;2.10;;;2.00;;
16401;SDS011;8310;44.626;11.176;2022-08-14T14:51:15;1.60;;;1.60;;
16401;SDS011;8310;44.626;11.176;2022-08-14T14:53:45;2.03;;;1.92;;
16401;SDS011;8310;44.626;11.176;2022-08-14T14:56:13;1.80;;;1.70;;
16401;SDS011;8310;44.626;11.176;2022-08-14T14:58:41;1.95;;;1.85;;
16401;SDS011;8310;44.626;11.176;2022-08-14T15:01:11;1.90;;;1.90;;
16401;SDS011;8310;44.626;11.176;2022-08-14T15:03:39;1.92;;;1.83;;
16401;SDS011;8310;44.626;11.176;2022-08-14T15:06:09;2.20;;;2.10;;
16401;SDS011;8310;44.626;11.176;2022-08-14T15:08:37;2.05;;;1.92;;
16401;SDS011;8310;44.626;11.176;2022-08-14T15:11:04;2.17;;;2.08;;